sensor_id;sensor_type;location;lat;lon;timestamp;P1;durP1;ratioP1;P2;durP2;ratioP2
62861;SDS011;48953;53.110;5.592;2023-04-24T00:01:02;6.13;;;4.30;;
62861;SDS011;48953;53.110;5.592;2023-04-24T00:03:28;9.32;;;4.30;;
62861;SDS011;48953;53.110;5.592;2023-04-24T00:05:54;7.18;;;4.20;;
62861;SDS011;48953;53.110;5.592;2023-04-24T00:08:30;6.72;;;4.00;;
62861;SDS011;48953;53.110;5.592;2023-04-24T00:10:56;6.88;;;3.70;;
62861;SDS011;48953;53.110;5.592;2023-04-24T00:13:22;8.05;;;3.53;;
62861;SDS011;48953;53.110;5.592;2023-04-24T00:15:48;4.88;;;3.63;;
62861;SDS011;48953;53.110;5.592;2023-04-24T00:18:14;4.38;;;3.17;;
62861;SDS011;48953;53.110;5.592;2023-04-24T00:20:40;4.82;;;3.53;;
62861;SDS011;48953;53.110;5.592;2023-04-24T00:23:06;4.88;;;3.38;;
62861;SDS011;48953;53.110;5.592;2023-04-24T00:25:33;7.43;;;4.03;;
62861;SDS011;48953;53.110;5.592;2023-04-24T00:27:58;5.70;;;3.80;;
62861;SDS011;48953;53.110;5.592;2023-04-24T00:30:24;8.82;;;3.97;;
62861;SDS011;48953;53.110;5.592;2023-04-24T00:32:50;6.57;;;4.45;;
62861;SDS011;48953;53.110;5.592;2023-04-24T00:35:16;7.85;;;3.92;;
62861;SDS011;48953;53.110;5.592;2023-04-24T00:37:44;5.65;;;3.83;;
62861;SDS011;48953;53.110;5.592;2023-04-24T00:40:11;9.18;;;4.18;;
62861;SDS011;48953;53.110;5.592;2023-04-24T00:42:37;7.13;;;4.57;;
62861;SDS011;48953;53.110;5.592;2023-04-24T00:45:03;6.38;;;4.32;;
62861;SDS011;48953;53.110;5.592;2023-04-24T00:47:29;7.75;;;4.53;;
62861;SDS011;48953;53.110;5.592;2023-04-24T00:50:07;7.72;;;4.60;;
62861;SDS011;48953;53.110;5.592;2023-04-24T00:52:38;7.63;;;4.45;;
62861;SDS011;48953;53.110;5.592;2023-04-24T00:55:05;6.90;;;4.72;;
62861;SDS011;48953;53.110;5.592;2023-04-24T00:57:32;6.40;;;4.53;;
62861;SDS011;48953;53.110;5.592;2023-04-24T00:59:58;7.90;;;4.63;;
62861;SDS011;48953;53.110;5.592;2023-04-24T01:02:24;6.15;;;3.90;;
62861;SDS011;48953;53.110;5.592;2023-04-24T01:04:50;6.75;;;4.50;;
62861;SDS011;48953;53.110;5.592;2023-04-24T01:07:18;8.63;;;4.60;;
62861;SDS011;48953;53.110;5.592;2023-04-24T01:09:45;6.93;;;4.15;;
62861;SDS011;48953;53.110;5.592;2023-04-24T01:12:14;7.78;;;5.25;;
62861;SDS011;48953;53.110;5.592;2023-04-24T01:14:40;5.25;;;4.55;;
62861;SDS011;48953;53.110;5.592;2023-04-24T01:17:06;5.85;;;4.22;;
62861;SDS011;48953;53.110;5.592;2023-04-24T01:19:34;8.00;;;4.30;;
62861;SDS011;48953;53.110;5.592;2023-04-24T01:22:02;6.93;;;3.90;;
62861;SDS011;48953;53.110;5.592;2023-04-24T01:24:28;2.53;;;1.92;;
62861;SDS011;48953;53.110;5.592;2023-04-24T01:26:54;2.63;;;1.48;;
62861;SDS011;48953;53.110;5.592;2023-04-24T01:29:20;1.58;;;1.23;;
62861;SDS011;48953;53.110;5.592;2023-04-24T01:31:47;1.80;;;1.27;;
62861;SDS011;48953;53.110;5.592;2023-04-24T01:34:27;3.42;;;1.65;;
62861;SDS011;48953;53.110;5.592;2023-04-24T01:36:53;0.95;;;0.85;;
62861;SDS011;48953;53.110;5.592;2023-04-24T01:39:19;1.30;;;1.20;;
62861;SDS011;48953;53.110;5.592;2023-04-24T01:41:45;1.50;;;1.20;;
62861;SDS011;48953;53.110;5.592;2023-04-24T01:44:11;1.77;;;1.30;;
62861;SDS011;48953;53.110;5.592;2023-04-24T01:46:37;1.00;;;0.90;;
62861;SDS011;48953;53.110;5.592;2023-04-24T01:49:03;1.30;;;1.20;;
62861;SDS011;48953;53.110;5.592;2023-04-24T01:51:30;1.42;;;1.20;;
62861;SDS011;48953;53.110;5.592;2023-04-24T01:53:56;1.27;;;1.17;;
62861;SDS011;48953;53.110;5.592;2023-04-24T01:56:22;1.58;;;1.00;;
62861;SDS011;48953;53.110;5.592;2023-04-24T01:58:51;1.00;;;0.90;;
62861;SDS011;48953;53.110;5.592;2023-04-24T02:01:18;1.70;;;1.05;;
62861;SDS011;48953;53.110;5.592;2023-04-24T02:03:45;0.70;;;0.70;;
62861;SDS011;48953;53.110;5.592;2023-04-24T02:06:11;1.58;;;1.08;;
62861;SDS011;48953;53.110;5.592;2023-04-24T02:08:37;0.98;;;0.88;;
62861;SDS011;48953;53.110;5.592;2023-04-24T02:11:03;2.08;;;1.27;;
62861;SDS011;48953;53.110;5.592;2023-04-24T02:13:29;1.38;;;1.08;;
62861;SDS011;48953;53.110;5.592;2023-04-24T02:15:58;2.65;;;1.00;;
62861;SDS011;48953;53.110;5.592;2023-04-24T02:18:24;2.63;;;1.08;;
62861;SDS011;48953;53.110;5.592;2023-04-24T02:20:50;1.45;;;0.77;;
62861;SDS011;48953;53.110;5.592;2023-04-24T02:23:16;0.80;;;0.80;;
62861;SDS011;48953;53.110;5.592;2023-04-24T02:25:42;1.13;;;0.93;;
62861;SDS011;48953;53.110;5.592;2023-04-24T02:28:08;1.90;;;1.60;;
62861;SDS011;48953;53.110;5.592;2023-04-24T02:30:34;2.92;;;1.20;;
62861;SDS011;48953;53.110;5.592;2023-04-24T02:33:00;3.17;;;1.92;;
62861;SDS011;48953;53.110;5.592;2023-04-24T02:35:26;6.05;;;2.10;;
62861;SDS011;48953;53.110;5.592;2023-04-24T02:37:52;3.78;;;2.42;;
62861;SDS011;48953;53.110;5.592;2023-04-24T02:40:18;4.35;;;2.95;;
62861;SDS011;48953;53.110;5.592;2023-04-24T02:42:44;3.60;;;2.22;;
62861;SDS011;48953;53.110;5.592;2023-04-24T02:45:10;7.55;;;4.70;;
62861;SDS011;48953;53.110;5.592;2023-04-24T02:47:36;7.15;;;4.05;;
62861;SDS011;48953;53.110;5.592;2023-04-24T02:50:02;9.35;;;5.90;;
62861;SDS011;48953;53.110;5.592;2023-04-24T02:52:29;8.90;;;5.90;;
62861;SDS011;48953;53.110;5.592;2023-04-24T02:54:55;8.55;;;5.75;;
62861;SDS011;48953;53.110;5.592;2023-04-24T02:57:21;8.35;;;5.30;;
62861;SDS011;48953;53.110;5.592;2023-04-24T02:59:47;10.98;;;7.38;;
62861;SDS011;48953;53.110;5.592;2023-04-24T03:02:13;14.57;;;8.13;;
62861;SDS011;48953;53.110;5.592;2023-04-24T03:04:39;10.82;;;6.25;;
62861;SDS011;48953;53.110;5.592;2023-04-24T03:07:05;13.63;;;8.75;;
62861;SDS011;48953;53.110;5.592;2023-04-24T03:09:31;9.18;;;6.60;;
62861;SDS011;48953;53.110;5.592;2023-04-24T03:11:57;14.52;;;9.95;;
62861;SDS011;48953;53.110;5.592;2023-04-24T03:14:23;15.93;;;8.65;;
62861;SDS011;48953;53.110;5.592;2023-04-24T03:16:49;18.10;;;10.82;;
62861;SDS011;48953;53.110;5.592;2023-04-24T03:19:15;14.27;;;8.43;;
62861;SDS011;48953;53.110;5.592;2023-04-24T03:21:41;15.85;;;9.27;;
62861;SDS011;48953;53.110;5.592;2023-04-24T03:24:07;7.47;;;5.20;;
62861;SDS011;48953;53.110;5.592;2023-04-24T03:26:34;10.05;;;6.07;;
62861;SDS011;48953;53.110;5.592;2023-04-24T03:29:00;8.68;;;5.40;;
62861;SDS011;48953;53.110;5.592;2023-04-24T03:31:26;12.43;;;6.63;;
62861;SDS011;48953;53.110;5.592;2023-04-24T03:33:52;13.07;;;7.50;;
62861;SDS011;48953;53.110;5.592;2023-04-24T03:36:22;6.93;;;4.68;;
62861;SDS011;48953;53.110;5.592;2023-04-24T03:38:48;6.20;;;3.83;;
62861;SDS011;48953;53.110;5.592;2023-04-24T03:41:14;4.47;;;2.55;;
62861;SDS011;48953;53.110;5.592;2023-04-24T03:43:40;6.47;;;4.03;;
62861;SDS011;48953;53.110;5.592;2023-04-24T03:46:06;7.20;;;3.58;;
62861;SDS011;48953;53.110;5.592;2023-04-24T03:48:34;9.23;;;4.28;;
62861;SDS011;48953;53.110;5.592;2023-04-24T03:51:00;6.18;;;3.13;;
62861;SDS011;48953;53.110;5.592;2023-04-24T03:53:26;4.80;;;3.22;;
62861;SDS011;48953;53.110;5.592;2023-04-24T03:55:52;4.82;;;3.50;;
62861;SDS011;48953;53.110;5.592;2023-04-24T03:58:18;6.07;;;4.28;;
62861;SDS011;48953;53.110;5.592;2023-04-24T04:00:44;5.40;;;3.35;;
62861;SDS011;48953;53.110;5.592;2023-04-24T04:03:12;6.55;;;4.82;;
62861;SDS011;48953;53.110;5.592;2023-04-24T04:05:39;3.35;;;2.88;;
62861;SDS011;48953;53.110;5.592;2023-04-24T04:08:05;2.58;;;2.00;;
62861;SDS011;48953;53.110;5.592;2023-04-24T04:10:31;4.13;;;2.65;;
62861;SDS011;48953;53.110;5.592;2023-04-24T04:12:57;2.45;;;1.35;;
62861;SDS011;48953;53.110;5.592;2023-04-24T04:15:23;2.22;;;1.13;;
62861;SDS011;48953;53.110;5.592;2023-04-24T04:17:49;1.65;;;1.20;;
62861;SDS011;48953;53.110;5.592;2023-04-24T04:20:18;2.95;;;1.73;;
62861;SDS011;48953;53.110;5.592;2023-04-24T04:22:44;3.33;;;2.00;;
62861;SDS011;48953;53.110;5.592;2023-04-24T04:25:10;4.00;;;1.60;;
62861;SDS011;48953;53.110;5.592;2023-04-24T04:27:38;3.40;;;2.35;;
62861;SDS011;48953;53.110;5.592;2023-04-24T04:30:06;4.85;;;2.15;;
62861;SDS011;48953;53.110;5.592;2023-04-24T04:32:36;6.78;;;2.90;;
62861;SDS011;48953;53.110;5.592;2023-04-24T04:35:02;4.68;;;2.72;;
62861;SDS011;48953;53.110;5.592;2023-04-24T04:37:29;3.47;;;1.88;;
62861;SDS011;48953;53.110;5.592;2023-04-24T04:39:56;2.88;;;1.88;;
62861;SDS011;48953;53.110;5.592;2023-04-24T04:42:23;3.30;;;1.98;;
62861;SDS011;48953;53.110;5.592;2023-04-24T04:44:49;15.32;;;2.20;;
62861;SDS011;48953;53.110;5.592;2023-04-24T04:47:15;7.15;;;1.63;;
62861;SDS011;48953;53.110;5.592;2023-04-24T04:49:42;2.33;;;1.65;;
62861;SDS011;48953;53.110;5.592;2023-04-24T04:52:08;7.03;;;3.22;;
62861;SDS011;48953;53.110;5.592;2023-04-24T04:54:35;6.30;;;2.90;;
62861;SDS011;48953;53.110;5.592;2023-04-24T04:57:00;5.95;;;3.47;;
62861;SDS011;48953;53.110;5.592;2023-04-24T04:59:27;8.05;;;4.30;;
62861;SDS011;48953;53.110;5.592;2023-04-24T05:01:52;9.27;;;4.30;;
62861;SDS011;48953;53.110;5.592;2023-04-24T05:04:18;11.27;;;5.93;;
62861;SDS011;48953;53.110;5.592;2023-04-24T05:06:45;9.40;;;4.28;;
62861;SDS011;48953;53.110;5.592;2023-04-24T05:09:12;13.38;;;6.13;;
62861;SDS011;48953;53.110;5.592;2023-04-24T05:11:38;8.40;;;4.50;;
62861;SDS011;48953;53.110;5.592;2023-04-24T05:14:04;6.82;;;4.55;;
62861;SDS011;48953;53.110;5.592;2023-04-24T05:16:30;7.60;;;4.40;;
62861;SDS011;48953;53.110;5.592;2023-04-24T05:18:56;8.95;;;5.07;;
62861;SDS011;48953;53.110;5.592;2023-04-24T05:21:22;6.60;;;4.53;;
62861;SDS011;48953;53.110;5.592;2023-04-24T05:23:48;5.43;;;3.22;;
62861;SDS011;48953;53.110;5.592;2023-04-24T05:26:14;5.72;;;2.92;;
62861;SDS011;48953;53.110;5.592;2023-04-24T05:28:40;3.42;;;2.22;;
62861;SDS011;48953;53.110;5.592;2023-04-24T05:31:06;2.47;;;1.88;;
62861;SDS011;48953;53.110;5.592;2023-04-24T05:33:32;3.58;;;1.33;;
62861;SDS011;48953;53.110;5.592;2023-04-24T05:35:58;2.70;;;1.13;;
62861;SDS011;48953;53.110;5.592;2023-04-24T05:38:24;3.65;;;1.10;;
62861;SDS011;48953;53.110;5.592;2023-04-24T05:40:50;1.95;;;1.05;;
62861;SDS011;48953;53.110;5.592;2023-04-24T05:43:16;1.75;;;0.80;;
62861;SDS011;48953;53.110;5.592;2023-04-24T05:45:42;1.73;;;1.00;;
62861;SDS011;48953;53.110;5.592;2023-04-24T05:50:40;2.80;;;1.13;;
62861;SDS011;48953;53.110;5.592;2023-04-24T05:53:06;0.80;;;0.60;;
62861;SDS011;48953;53.110;5.592;2023-04-24T05:58:04;3.20;;;0.90;;
62861;SDS011;48953;53.110;5.592;2023-04-24T06:00:30;4.35;;;2.00;;
62861;SDS011;48953;53.110;5.592;2023-04-24T06:02:56;6.20;;;2.40;;
62861;SDS011;48953;53.110;5.592;2023-04-24T06:05:22;5.25;;;2.85;;
62861;SDS011;48953;53.110;5.592;2023-04-24T06:07:48;7.97;;;4.75;;
62861;SDS011;48953;53.110;5.592;2023-04-24T06:10:14;8.27;;;5.32;;
62861;SDS011;48953;53.110;5.592;2023-04-24T06:12:40;12.73;;;8.18;;
62861;SDS011;48953;53.110;5.592;2023-04-24T06:15:06;15.68;;;8.30;;
62861;SDS011;48953;53.110;5.592;2023-04-24T06:17:33;11.73;;;6.15;;
62861;SDS011;48953;53.110;5.592;2023-04-24T06:19:59;9.23;;;5.82;;
62861;SDS011;48953;53.110;5.592;2023-04-24T06:22:25;13.27;;;8.02;;
62861;SDS011;48953;53.110;5.592;2023-04-24T06:24:51;14.52;;;7.53;;
62861;SDS011;48953;53.110;5.592;2023-04-24T06:27:17;17.80;;;9.10;;
62861;SDS011;48953;53.110;5.592;2023-04-24T06:29:43;14.77;;;7.30;;
62861;SDS011;48953;53.110;5.592;2023-04-24T06:32:09;16.27;;;8.65;;
62861;SDS011;48953;53.110;5.592;2023-04-24T06:34:35;12.50;;;6.80;;
62861;SDS011;48953;53.110;5.592;2023-04-24T06:37:01;14.85;;;8.05;;
62861;SDS011;48953;53.110;5.592;2023-04-24T06:39:28;23.52;;;13.57;;
62861;SDS011;48953;53.110;5.592;2023-04-24T06:41:53;20.20;;;9.32;;
62861;SDS011;48953;53.110;5.592;2023-04-24T06:44:20;17.52;;;10.50;;
62861;SDS011;48953;53.110;5.592;2023-04-24T06:46:46;14.80;;;9.40;;
62861;SDS011;48953;53.110;5.592;2023-04-24T06:49:12;14.20;;;7.68;;
62861;SDS011;48953;53.110;5.592;2023-04-24T06:51:40;16.55;;;9.93;;
62861;SDS011;48953;53.110;5.592;2023-04-24T06:54:06;14.13;;;7.57;;
62861;SDS011;48953;53.110;5.592;2023-04-24T06:56:32;14.40;;;9.40;;
62861;SDS011;48953;53.110;5.592;2023-04-24T06:58:59;19.63;;;9.80;;
62861;SDS011;48953;53.110;5.592;2023-04-24T07:01:25;13.80;;;6.85;;
62861;SDS011;48953;53.110;5.592;2023-04-24T07:03:51;15.15;;;8.40;;
62861;SDS011;48953;53.110;5.592;2023-04-24T07:06:17;15.95;;;7.82;;
62861;SDS011;48953;53.110;5.592;2023-04-24T07:08:46;9.68;;;5.57;;
62861;SDS011;48953;53.110;5.592;2023-04-24T07:11:12;11.23;;;6.85;;
62861;SDS011;48953;53.110;5.592;2023-04-24T07:13:38;15.48;;;7.65;;
62861;SDS011;48953;53.110;5.592;2023-04-24T07:16:06;6.03;;;4.22;;
62861;SDS011;48953;53.110;5.592;2023-04-24T07:18:33;7.78;;;4.50;;
62861;SDS011;48953;53.110;5.592;2023-04-24T07:21:04;6.13;;;3.90;;
62861;SDS011;48953;53.110;5.592;2023-04-24T07:23:31;9.18;;;4.65;;
62861;SDS011;48953;53.110;5.592;2023-04-24T07:25:57;8.77;;;5.53;;
62861;SDS011;48953;53.110;5.592;2023-04-24T07:28:23;4.30;;;2.75;;
62861;SDS011;48953;53.110;5.592;2023-04-24T07:30:56;6.85;;;3.67;;
62861;SDS011;48953;53.110;5.592;2023-04-24T07:33:22;10.30;;;3.63;;
62861;SDS011;48953;53.110;5.592;2023-04-24T07:35:48;5.47;;;4.20;;
62861;SDS011;48953;53.110;5.592;2023-04-24T07:38:14;9.05;;;3.58;;
62861;SDS011;48953;53.110;5.592;2023-04-24T07:40:40;8.52;;;5.60;;
62861;SDS011;48953;53.110;5.592;2023-04-24T07:43:06;12.80;;;7.00;;
62861;SDS011;48953;53.110;5.592;2023-04-24T07:45:32;7.53;;;4.50;;
62861;SDS011;48953;53.110;5.592;2023-04-24T07:48:01;7.28;;;3.40;;
62861;SDS011;48953;53.110;5.592;2023-04-24T07:50:27;7.15;;;4.13;;
62861;SDS011;48953;53.110;5.592;2023-04-24T07:52:53;7.60;;;4.78;;
62861;SDS011;48953;53.110;5.592;2023-04-24T07:55:19;5.72;;;3.83;;
62861;SDS011;48953;53.110;5.592;2023-04-24T07:57:45;11.70;;;5.13;;
62861;SDS011;48953;53.110;5.592;2023-04-24T08:00:11;6.82;;;3.97;;
62861;SDS011;48953;53.110;5.592;2023-04-24T08:02:38;10.85;;;5.38;;
62861;SDS011;48953;53.110;5.592;2023-04-24T08:05:16;6.63;;;3.60;;
62861;SDS011;48953;53.110;5.592;2023-04-24T08:07:42;5.88;;;3.45;;
62861;SDS011;48953;53.110;5.592;2023-04-24T08:10:09;2.67;;;1.88;;
62861;SDS011;48953;53.110;5.592;2023-04-24T08:12:36;10.88;;;4.47;;
62861;SDS011;48953;53.110;5.592;2023-04-24T08:15:09;10.07;;;4.05;;
62861;SDS011;48953;53.110;5.592;2023-04-24T08:17:36;8.88;;;4.03;;
62861;SDS011;48953;53.110;5.592;2023-04-24T08:20:02;9.10;;;3.47;;
62861;SDS011;48953;53.110;5.592;2023-04-24T08:22:30;3.15;;;2.10;;
62861;SDS011;48953;53.110;5.592;2023-04-24T08:24:56;3.72;;;2.17;;
62861;SDS011;48953;53.110;5.592;2023-04-24T08:27:22;6.72;;;3.00;;
62861;SDS011;48953;53.110;5.592;2023-04-24T08:29:49;8.90;;;1.98;;
62861;SDS011;48953;53.110;5.592;2023-04-24T08:32:15;4.60;;;2.15;;
62861;SDS011;48953;53.110;5.592;2023-04-24T08:34:41;5.45;;;2.72;;
62861;SDS011;48953;53.110;5.592;2023-04-24T08:37:07;4.40;;;2.55;;
62861;SDS011;48953;53.110;5.592;2023-04-24T08:39:33;5.72;;;3.50;;
62861;SDS011;48953;53.110;5.592;2023-04-24T08:41:59;9.38;;;2.85;;
62861;SDS011;48953;53.110;5.592;2023-04-24T08:44:31;9.77;;;3.35;;
62861;SDS011;48953;53.110;5.592;2023-04-24T08:47:00;9.20;;;3.47;;
62861;SDS011;48953;53.110;5.592;2023-04-24T08:49:27;10.60;;;3.30;;
62861;SDS011;48953;53.110;5.592;2023-04-24T08:51:54;4.28;;;2.15;;
62861;SDS011;48953;53.110;5.592;2023-04-24T08:54:20;11.02;;;3.08;;
62861;SDS011;48953;53.110;5.592;2023-04-24T08:56:47;9.77;;;2.97;;
62861;SDS011;48953;53.110;5.592;2023-04-24T08:59:14;4.50;;;1.85;;
62861;SDS011;48953;53.110;5.592;2023-04-24T09:01:40;6.55;;;2.05;;
62861;SDS011;48953;53.110;5.592;2023-04-24T09:04:07;8.70;;;2.33;;
62861;SDS011;48953;53.110;5.592;2023-04-24T09:06:34;6.43;;;2.38;;
62861;SDS011;48953;53.110;5.592;2023-04-24T09:09:01;6.00;;;2.13;;
62861;SDS011;48953;53.110;5.592;2023-04-24T09:11:28;7.47;;;2.55;;
62861;SDS011;48953;53.110;5.592;2023-04-24T09:13:54;7.97;;;2.50;;
62861;SDS011;48953;53.110;5.592;2023-04-24T09:16:22;13.15;;;2.38;;
62861;SDS011;48953;53.110;5.592;2023-04-24T09:18:49;5.40;;;2.03;;
62861;SDS011;48953;53.110;5.592;2023-04-24T09:21:15;9.50;;;2.25;;
62861;SDS011;48953;53.110;5.592;2023-04-24T09:23:41;8.38;;;2.03;;
62861;SDS011;48953;53.110;5.592;2023-04-24T09:26:08;5.93;;;1.73;;
62861;SDS011;48953;53.110;5.592;2023-04-24T09:28:36;5.50;;;2.13;;
62861;SDS011;48953;53.110;5.592;2023-04-24T09:31:09;7.40;;;1.67;;
62861;SDS011;48953;53.110;5.592;2023-04-24T09:33:35;8.05;;;2.10;;
62861;SDS011;48953;53.110;5.592;2023-04-24T09:36:02;10.43;;;2.45;;
62861;SDS011;48953;53.110;5.592;2023-04-24T09:38:35;8.25;;;1.80;;
62861;SDS011;48953;53.110;5.592;2023-04-24T09:41:02;6.60;;;1.65;;
62861;SDS011;48953;53.110;5.592;2023-04-24T09:43:28;9.93;;;1.88;;
62861;SDS011;48953;53.110;5.592;2023-04-24T09:45:55;6.07;;;1.45;;
62861;SDS011;48953;53.110;5.592;2023-04-24T09:48:34;6.82;;;1.17;;
62861;SDS011;48953;53.110;5.592;2023-04-24T09:51:01;7.40;;;1.73;;
62861;SDS011;48953;53.110;5.592;2023-04-24T09:53:28;8.82;;;2.35;;
62861;SDS011;48953;53.110;5.592;2023-04-24T09:55:55;5.53;;;1.42;;
62861;SDS011;48953;53.110;5.592;2023-04-24T09:58:24;5.25;;;1.20;;
62861;SDS011;48953;53.110;5.592;2023-04-24T10:03:17;5.43;;;1.13;;
62861;SDS011;48953;53.110;5.592;2023-04-24T10:05:44;11.00;;;1.52;;
62861;SDS011;48953;53.110;5.592;2023-04-24T10:08:12;4.80;;;1.48;;
62861;SDS011;48953;53.110;5.592;2023-04-24T10:10:39;6.43;;;1.38;;
62861;SDS011;48953;53.110;5.592;2023-04-24T10:13:06;4.00;;;1.10;;
62861;SDS011;48953;53.110;5.592;2023-04-24T10:15:32;9.02;;;2.05;;
62861;SDS011;48953;53.110;5.592;2023-04-24T10:17:59;6.20;;;1.35;;
62861;SDS011;48953;53.110;5.592;2023-04-24T10:20:28;4.05;;;1.13;;
62861;SDS011;48953;53.110;5.592;2023-04-24T10:22:55;8.50;;;1.45;;
62861;SDS011;48953;53.110;5.592;2023-04-24T10:25:24;3.35;;;1.27;;
62861;SDS011;48953;53.110;5.592;2023-04-24T10:27:50;5.57;;;1.02;;
62861;SDS011;48953;53.110;5.592;2023-04-24T10:30:17;7.10;;;1.55;;
62861;SDS011;48953;53.110;5.592;2023-04-24T10:32:43;2.45;;;1.23;;
62861;SDS011;48953;53.110;5.592;2023-04-24T10:35:09;4.53;;;1.20;;
62861;SDS011;48953;53.110;5.592;2023-04-24T10:37:37;3.47;;;1.00;;
62861;SDS011;48953;53.110;5.592;2023-04-24T10:40:04;2.92;;;1.00;;
62861;SDS011;48953;53.110;5.592;2023-04-24T10:42:32;3.80;;;1.10;;
62861;SDS011;48953;53.110;5.592;2023-04-24T10:44:58;5.15;;;1.38;;
62861;SDS011;48953;53.110;5.592;2023-04-24T10:47:26;3.15;;;1.15;;
62861;SDS011;48953;53.110;5.592;2023-04-24T10:49:53;4.40;;;1.05;;
62861;SDS011;48953;53.110;5.592;2023-04-24T10:52:19;1.75;;;0.52;;
62861;SDS011;48953;53.110;5.592;2023-04-24T10:54:45;3.20;;;0.80;;
62861;SDS011;48953;53.110;5.592;2023-04-24T11:02:39;2.72;;;0.75;;
62861;SDS011;48953;53.110;5.592;2023-04-24T11:05:05;2.47;;;1.05;;
62861;SDS011;48953;53.110;5.592;2023-04-24T11:10:25;4.43;;;0.70;;
62861;SDS011;48953;53.110;5.592;2023-04-24T11:12:51;4.97;;;1.42;;
62861;SDS011;48953;53.110;5.592;2023-04-24T11:15:17;2.40;;;0.43;;
62861;SDS011;48953;53.110;5.592;2023-04-24T11:17:45;3.70;;;0.80;;
62861;SDS011;48953;53.110;5.592;2023-04-24T11:20:11;4.15;;;0.52;;
62861;SDS011;48953;53.110;5.592;2023-04-24T11:22:38;4.32;;;0.60;;
62861;SDS011;48953;53.110;5.592;2023-04-24T11:25:05;5.35;;;1.15;;
62861;SDS011;48953;53.110;5.592;2023-04-24T11:27:33;1.65;;;0.70;;
62861;SDS011;48953;53.110;5.592;2023-04-24T11:30:04;4.32;;;0.50;;
62861;SDS011;48953;53.110;5.592;2023-04-24T11:32:33;2.40;;;0.73;;
62861;SDS011;48953;53.110;5.592;2023-04-24T11:35:08;6.78;;;1.15;;
62861;SDS011;48953;53.110;5.592;2023-04-24T11:37:39;1.75;;;0.60;;
62861;SDS011;48953;53.110;5.592;2023-04-24T11:40:08;5.82;;;0.80;;
62861;SDS011;48953;53.110;5.592;2023-04-24T11:42:35;3.55;;;0.77;;
62861;SDS011;48953;53.110;5.592;2023-04-24T11:45:01;5.07;;;0.80;;
62861;SDS011;48953;53.110;5.592;2023-04-24T11:47:31;6.18;;;0.88;;
62861;SDS011;48953;53.110;5.592;2023-04-24T11:49:58;9.05;;;1.10;;
62861;SDS011;48953;53.110;5.592;2023-04-24T11:52:25;3.33;;;0.70;;
62861;SDS011;48953;53.110;5.592;2023-04-24T11:54:51;3.53;;;0.65;;
62861;SDS011;48953;53.110;5.592;2023-04-24T11:57:24;3.35;;;0.50;;
62861;SDS011;48953;53.110;5.592;2023-04-24T11:59:55;2.95;;;0.80;;
62861;SDS011;48953;53.110;5.592;2023-04-24T12:02:24;2.30;;;0.40;;
62861;SDS011;48953;53.110;5.592;2023-04-24T12:04:51;1.38;;;0.47;;
62861;SDS011;48953;53.110;5.592;2023-04-24T12:07:17;1.80;;;0.65;;
62861;SDS011;48953;53.110;5.592;2023-04-24T12:09:44;1.65;;;0.52;;
62861;SDS011;48953;53.110;5.592;2023-04-24T12:12:11;4.07;;;0.50;;
62861;SDS011;48953;53.110;5.592;2023-04-24T12:17:23;3.20;;;0.55;;
62861;SDS011;48953;53.110;5.592;2023-04-24T12:19:49;3.03;;;0.80;;
62861;SDS011;48953;53.110;5.592;2023-04-24T12:22:15;1.25;;;0.50;;
62861;SDS011;48953;53.110;5.592;2023-04-24T12:25:01;1.85;;;0.57;;
62861;SDS011;48953;53.110;5.592;2023-04-24T12:27:29;3.35;;;0.55;;
62861;SDS011;48953;53.110;5.592;2023-04-24T12:29:56;1.38;;;0.68;;
62861;SDS011;48953;53.110;5.592;2023-04-24T12:32:22;2.17;;;0.50;;
62861;SDS011;48953;53.110;5.592;2023-04-24T12:34:50;1.75;;;0.50;;
62861;SDS011;48953;53.110;5.592;2023-04-24T12:37:17;2.05;;;0.80;;
62861;SDS011;48953;53.110;5.592;2023-04-24T12:42:27;4.50;;;0.80;;
62861;SDS011;48953;53.110;5.592;2023-04-24T12:44:58;3.30;;;0.73;;
62861;SDS011;48953;53.110;5.592;2023-04-24T12:47:25;3.13;;;0.90;;
62861;SDS011;48953;53.110;5.592;2023-04-24T12:49:51;7.10;;;0.88;;
62861;SDS011;48953;53.110;5.592;2023-04-24T12:52:20;5.18;;;1.50;;
62861;SDS011;48953;53.110;5.592;2023-04-24T12:54:46;7.47;;;1.47;;
62861;SDS011;48953;53.110;5.592;2023-04-24T12:57:12;1.45;;;0.77;;
62861;SDS011;48953;53.110;5.592;2023-04-24T12:59:38;6.43;;;1.20;;
62861;SDS011;48953;53.110;5.592;2023-04-24T13:02:05;3.42;;;1.10;;
62861;SDS011;48953;53.110;5.592;2023-04-24T13:04:31;5.70;;;1.08;;
62861;SDS011;48953;53.110;5.592;2023-04-24T13:06:57;7.07;;;1.23;;
62861;SDS011;48953;53.110;5.592;2023-04-24T13:09:23;9.07;;;1.42;;
62861;SDS011;48953;53.110;5.592;2023-04-24T13:11:49;4.43;;;1.30;;
62861;SDS011;48953;53.110;5.592;2023-04-24T13:14:15;10.88;;;1.95;;
62861;SDS011;48953;53.110;5.592;2023-04-24T13:16:41;7.40;;;1.42;;
62861;SDS011;48953;53.110;5.592;2023-04-24T13:19:07;6.28;;;1.55;;
62861;SDS011;48953;53.110;5.592;2023-04-24T13:21:33;7.88;;;1.63;;
62861;SDS011;48953;53.110;5.592;2023-04-24T13:23:59;7.28;;;1.85;;
62861;SDS011;48953;53.110;5.592;2023-04-24T13:26:28;5.80;;;1.48;;
62861;SDS011;48953;53.110;5.592;2023-04-24T13:28:54;5.63;;;0.93;;
62861;SDS011;48953;53.110;5.592;2023-04-24T13:31:20;4.72;;;1.40;;
62861;SDS011;48953;53.110;5.592;2023-04-24T13:33:46;6.22;;;1.25;;
62861;SDS011;48953;53.110;5.592;2023-04-24T13:36:12;3.17;;;1.20;;
62861;SDS011;48953;53.110;5.592;2023-04-24T13:38:38;11.77;;;1.85;;
62861;SDS011;48953;53.110;5.592;2023-04-24T13:41:04;8.10;;;1.85;;
62861;SDS011;48953;53.110;5.592;2023-04-24T13:43:30;15.05;;;2.72;;
62861;SDS011;48953;53.110;5.592;2023-04-24T13:45:56;5.57;;;1.55;;
62861;SDS011;48953;53.110;5.592;2023-04-24T13:48:24;4.18;;;1.35;;
62861;SDS011;48953;53.110;5.592;2023-04-24T13:50:50;6.18;;;1.58;;
62861;SDS011;48953;53.110;5.592;2023-04-24T13:53:16;6.07;;;1.52;;
62861;SDS011;48953;53.110;5.592;2023-04-24T13:55:42;7.70;;;1.88;;
62861;SDS011;48953;53.110;5.592;2023-04-24T13:58:08;8.95;;;2.50;;
62861;SDS011;48953;53.110;5.592;2023-04-24T14:00:34;10.35;;;2.22;;
62861;SDS011;48953;53.110;5.592;2023-04-24T14:03:00;13.60;;;2.58;;
62861;SDS011;48953;53.110;5.592;2023-04-24T14:05:29;7.00;;;2.08;;
62861;SDS011;48953;53.110;5.592;2023-04-24T14:07:55;6.38;;;1.70;;
62861;SDS011;48953;53.110;5.592;2023-04-24T14:10:21;6.78;;;2.35;;
62861;SDS011;48953;53.110;5.592;2023-04-24T14:12:47;7.88;;;2.13;;
62861;SDS011;48953;53.110;5.592;2023-04-24T14:15:13;9.48;;;2.92;;
62861;SDS011;48953;53.110;5.592;2023-04-24T14:17:39;6.10;;;2.05;;
62861;SDS011;48953;53.110;5.592;2023-04-24T14:20:05;6.35;;;2.28;;
62861;SDS011;48953;53.110;5.592;2023-04-24T14:22:32;7.32;;;2.38;;
62861;SDS011;48953;53.110;5.592;2023-04-24T14:25:01;5.50;;;1.60;;
62861;SDS011;48953;53.110;5.592;2023-04-24T14:27:27;6.00;;;1.42;;
62861;SDS011;48953;53.110;5.592;2023-04-24T14:29:53;8.15;;;2.22;;
62861;SDS011;48953;53.110;5.592;2023-04-24T14:32:19;9.90;;;2.58;;
62861;SDS011;48953;53.110;5.592;2023-04-24T14:34:45;7.35;;;2.05;;
62861;SDS011;48953;53.110;5.592;2023-04-24T14:37:11;3.80;;;2.20;;
62861;SDS011;48953;53.110;5.592;2023-04-24T14:42:07;11.13;;;2.22;;
62861;SDS011;48953;53.110;5.592;2023-04-24T14:44:33;3.97;;;1.42;;
62861;SDS011;48953;53.110;5.592;2023-04-24T14:46:59;8.10;;;2.17;;
62861;SDS011;48953;53.110;5.592;2023-04-24T14:52:41;10.48;;;1.85;;
62861;SDS011;48953;53.110;5.592;2023-04-24T14:55:07;11.85;;;2.15;;
62861;SDS011;48953;53.110;5.592;2023-04-24T14:57:33;6.90;;;1.70;;
62861;SDS011;48953;53.110;5.592;2023-04-24T15:00:01;9.27;;;2.67;;
62861;SDS011;48953;53.110;5.592;2023-04-24T15:02:28;6.63;;;2.30;;
62861;SDS011;48953;53.110;5.592;2023-04-24T15:04:54;10.85;;;3.70;;
62861;SDS011;48953;53.110;5.592;2023-04-24T15:07:20;4.93;;;2.05;;
62861;SDS011;48953;53.110;5.592;2023-04-24T15:09:46;6.85;;;2.25;;